Archival Weather

NSFA McMurdo Sound

NSFA McMurdo Sound, Antarctica (NZCM)

Report from: Thursday, September 21, 2023 12:55 PM UTC
Current time: Saturday, February 24, 2024 3:04 PM UTC

Current weather – Weather history – Daily summaries
Weather forecast

Present weatherBlowing snow, mist
Temperature-11.4°C (11.5°F)
Wind chill-24.8°C (-12.6°F)
Dew point-13.6°C (7.5°F)
Winds 34 kts (17.5 m/s, 39.1 mph) South-Southeast (150°)
Wind gusts 49 kts (25.2 m/s, 56.4 mph)
Peak wind 51 kts (26.2 m/s, 58.7 mph) Southeast (130°) at 12:44
Visibility3.1 mi. (5 km)
Clouds Ceiling: Broken clouds 2,000 ft. (610 m)
Overcast 4,900 ft. (1,494 m)
Altimeter28.67 in.Hg (971 mB)
Precip. events Snow began 12:26 PM
Snow ended 12:29 PM
Relative humidity84 %
Density altitude-5,238 ft. (-1,597 m)
Sea-level pressure107.1 kPa (1071 mB, 31.64 in.Hg)
Remarks Fully automated report
Automated weather observing station with precipitation discriminator
Variable
Flight conditions Marginal Visual Meteorological Conditions
Raw dataNZCM 211255Z AUTO 15034G49KT 5000 BLSN BR BKN020 OVC049 M11/M14 A2867 RMK AO2 PK WND 13051/1244 SNB1226E1229 BKN V OVC SLP714 T11141136
An error has occurred. This application may no longer respond until reloaded. Reload 🗙